createdAt,value
2019-05-14T03:35:41.173Z,95.90
2019-05-14T03:36:18.387Z,95.90
2019-05-14T03:37:05.032Z,96.00
2019-05-14T03:37:43.418Z,95.90
2019-05-14T03:38:22.315Z,96.10
2019-05-14T03:39:02.907Z,96.10
2019-05-14T03:39:41.603Z,96.20
2019-05-14T03:40:20.112Z,96.10
2019-05-14T03:41:00.130Z,96.10
2019-05-14T03:41:39.840Z,96.00
2019-05-14T03:42:20.780Z,96.10
2019-05-14T03:43:00.042Z,96.10
2019-05-14T03:43:39.228Z,96.00
2019-05-14T03:44:19.968Z,96.00
2019-05-14T03:44:59.711Z,96.00
2019-05-14T03:45:39.187Z,96.00
2019-05-14T03:46:20.585Z,95.90
2019-05-14T03:47:04.658Z,95.90
2019-05-14T03:47:39.337Z,95.80
2019-05-14T03:48:19.297Z,95.90
2019-05-14T03:49:00.088Z,95.90
2019-05-14T03:49:39.746Z,95.90
2019-05-14T03:50:19.180Z,95.80
2019-05-14T03:51:00.321Z,95.80
2019-05-14T03:51:39.361Z,95.90
2019-05-14T03:52:19.878Z,95.90
2019-05-14T03:52:59.330Z,95.80
2019-05-14T03:53:55.004Z,95.90
2019-05-14T03:54:19.431Z,95.90
2019-05-14T03:55:03.941Z,95.80
2019-05-14T03:55:40.340Z,95.70
2019-05-14T03:56:19.303Z,95.70
2019-05-14T03:57:00.284Z,95.80
2019-05-14T03:57:39.967Z,95.70
2019-05-14T03:58:21.105Z,95.70
2019-05-14T03:58:59.876Z,95.60
2019-05-14T03:59:40.159Z,95.80
2019-05-14T04:00:20.847Z,95.70
2019-05-14T04:01:02.591Z,95.80
2019-05-14T04:01:41.416Z,95.90
2019-05-14T04:02:20.361Z,95.90
2019-05-14T04:03:00.217Z,96.00
2019-05-14T04:03:40.069Z,96.00
2019-05-14T04:04:19.907Z,96.00
2019-05-14T04:04:59.997Z,96.00
2019-05-14T04:05:40.131Z,95.90
2019-05-14T04:06:19.263Z,95.90
2019-05-14T04:06:59.874Z,96.10
2019-05-14T04:07:39.358Z,96.10
2019-05-14T04:08:21.420Z,96.20
2019-05-14T04:09:00.556Z,96.20
2019-05-14T04:09:39.979Z,96.10
2019-05-14T04:10:19.451Z,95.60
2019-05-14T04:10:59.251Z,95.40
2019-05-14T04:11:39.858Z,95.20
2019-05-14T04:12:19.386Z,95.00
2019-05-14T04:12:59.874Z,94.90
2019-05-14T04:13:40.649Z,94.90
2019-05-14T04:14:20.075Z,94.70
2019-05-14T04:14:59.669Z,94.60
2019-05-14T04:15:39.228Z,94.60
2019-05-14T04:16:20.200Z,94.60
2019-05-14T04:17:08.918Z,94.50
2019-05-14T04:17:42.333Z,94.60
2019-05-14T04:18:19.287Z,94.70
2019-05-14T04:18:59.433Z,94.70
2019-05-14T04:19:39.436Z,94.70
2019-05-14T04:20:20.624Z,94.80
2019-05-14T04:21:00.989Z,94.80
2019-05-14T04:21:40.194Z,94.70
2019-05-14T04:22:19.285Z,94.80
2019-05-14T04:23:00.034Z,94.80
2019-05-14T04:23:39.918Z,94.50
2019-05-14T04:24:20.150Z,94.50
2019-05-14T04:24:59.651Z,94.40
2019-05-14T04:25:39.155Z,94.40
2019-05-14T04:26:20.007Z,94.50
2019-05-14T04:27:07.540Z,94.50
2019-05-14T04:27:40.030Z,94.60
2019-05-14T04:28:19.629Z,94.70
2019-05-14T04:29:00.442Z,94.80
2019-05-14T04:29:39.659Z,94.80
2019-05-14T04:30:24.038Z,94.90
2019-05-14T04:31:00.393Z,95.00
2019-05-14T04:31:39.217Z,95.30
2019-05-14T04:32:20.089Z,95.30
2019-05-14T04:32:59.373Z,95.50
2019-05-14T04:33:39.453Z,95.60
2019-05-14T04:34:19.506Z,95.70
2019-05-14T04:34:59.706Z,95.90
2019-05-14T04:35:40.113Z,96.30
2019-05-14T04:36:19.470Z,96.80
2019-05-14T04:36:59.447Z,97.00
2019-05-14T04:37:39.882Z,97.70
2019-05-14T04:38:20.163Z,97.70
2019-05-14T04:39:00.594Z,98.00
2019-05-14T04:39:39.826Z,98.40
2019-05-14T04:40:19.135Z,98.80
2019-05-14T04:40:59.832Z,98.90
2019-05-14T04:41:39.445Z,99.50
2019-05-14T04:42:20.320Z,99.20
2019-05-14T04:42:59.148Z,99.30
2019-05-14T04:43:40.086Z,99.40
2019-05-14T04:44:19.212Z,99.60
2019-05-14T04:45:00.844Z,99.70
2019-05-14T04:45:39.550Z,99.70
2019-05-14T04:46:19.892Z,99.90
2019-05-14T04:46:59.908Z,99.90
2019-05-14T04:47:42.135Z,99.90
2019-05-14T04:48:31.188Z,99.90
2019-05-14T04:48:59.855Z,99.90
2019-05-14T04:49:39.929Z,99.90
2019-05-14T04:50:20.058Z,99.90
2019-05-14T04:51:00.541Z,99.90
2019-05-14T04:51:39.853Z,99.90
2019-05-14T04:52:20.508Z,99.90
2019-05-14T04:53:00.086Z,99.90
2019-05-14T04:53:39.595Z,99.90
2019-05-14T04:54:19.429Z,99.90
2019-05-14T04:54:59.675Z,99.90
2019-05-14T04:55:40.071Z,99.90
2019-05-14T04:56:19.587Z,99.90
2019-05-14T04:56:59.968Z,99.90
2019-05-14T04:57:39.541Z,99.90
2019-05-14T04:58:21.671Z,99.90
2019-05-14T04:58:59.717Z,99.90
2019-05-14T04:59:39.766Z,99.90
2019-05-14T05:00:20.065Z,99.90
2019-05-14T05:01:00.538Z,99.90
2019-05-14T05:01:40.210Z,99.90
2019-05-14T05:02:20.104Z,99.90
2019-05-14T05:02:59.989Z,99.90
2019-05-14T05:03:39.934Z,99.90
2019-05-14T05:04:20.212Z,99.90
2019-05-14T05:04:59.636Z,99.90
2019-05-14T05:05:39.383Z,99.90
2019-05-14T05:06:19.280Z,99.90
2019-05-14T05:06:59.231Z,99.90
2019-05-14T05:07:40.417Z,99.90
2019-05-14T05:08:19.930Z,99.90
2019-05-14T05:09:00.039Z,99.90
2019-05-14T05:09:39.815Z,99.90
2019-05-14T05:10:19.997Z,99.90
2019-05-14T05:11:00.112Z,99.90
2019-05-14T05:11:39.633Z,99.90
2019-05-14T05:12:19.696Z,99.90
2019-05-14T05:12:58.887Z,99.90
2019-05-14T05:13:39.583Z,99.90
2019-05-14T05:14:19.119Z,99.90
2019-05-14T05:14:58.672Z,99.90
2019-05-14T05:15:39.529Z,99.70
2019-05-14T05:16:19.349Z,99.80
2019-05-14T05:16:59.740Z,99.50
2019-05-14T05:17:47.187Z,99.40
2019-05-14T05:18:18.829Z,99.20
2019-05-14T05:18:59.422Z,99.20
2019-05-14T05:19:39.319Z,99.30
2019-05-14T05:20:19.333Z,99.50
2019-05-14T05:20:58.699Z,99.50
2019-05-14T05:21:38.789Z,99.30
2019-05-14T05:22:19.556Z,99.20
2019-05-14T05:22:59.048Z,99.00
2019-05-14T05:23:38.738Z,99.10
2019-05-14T05:24:18.393Z,98.90
2019-05-14T05:24:59.002Z,98.90
2019-05-14T05:25:38.456Z,98.70
2019-05-14T05:26:18.465Z,98.70
2019-05-14T05:26:58.539Z,98.70
2019-05-14T05:27:38.228Z,98.60
2019-05-14T05:28:19.042Z,98.90
2019-05-14T05:29:05.511Z,98.80
2019-05-14T05:29:39.229Z,98.80
2019-05-14T05:30:18.968Z,98.90
2019-05-14T05:30:58.707Z,99.00
2019-05-14T05:31:38.132Z,99.00
2019-05-14T05:32:19.191Z,99.00
2019-05-14T05:32:59.524Z,99.00
2019-05-14T05:33:38.395Z,98.90
2019-05-14T05:34:19.271Z,98.90
2019-05-14T05:34:58.646Z,99.10
2019-05-14T05:35:40.373Z,98.90
2019-05-14T05:36:18.616Z,98.70
2019-05-14T05:36:59.184Z,98.80
2019-05-14T05:37:38.410Z,98.80
2019-05-14T05:38:18.404Z,98.90
2019-05-14T05:38:59.259Z,99.00
2019-05-14T05:39:38.663Z,99.30
2019-05-14T05:40:19.641Z,99.40
2019-05-14T05:40:59.940Z,99.50
2019-05-14T05:41:38.494Z,99.60
2019-05-14T05:42:18.781Z,99.70
2019-05-14T05:42:58.268Z,99.80
2019-05-14T05:43:39.111Z,99.90
2019-05-14T05:44:18.771Z,99.90
2019-05-14T05:44:58.745Z,99.90
2019-05-14T05:45:38.075Z,99.90
2019-05-14T05:46:19.222Z,99.90
2019-05-14T05:46:59.741Z,99.90
2019-05-14T05:47:39.100Z,99.90
2019-05-14T05:48:18.775Z,99.90
2019-05-14T05:48:58.683Z,99.90
2019-05-14T05:49:38.132Z,99.90
2019-05-14T05:50:19.311Z,99.90
2019-05-14T05:50:59.092Z,99.90
2019-05-14T05:51:39.245Z,99.90
2019-05-14T05:52:19.121Z,99.90
2019-05-14T05:52:58.569Z,99.90
2019-05-14T05:53:39.072Z,99.90
2019-05-14T05:54:18.535Z,99.90
2019-05-14T05:54:58.402Z,99.90
2019-05-14T05:55:39.268Z,99.90
2019-05-14T05:56:18.721Z,99.90
2019-05-14T05:56:58.166Z,99.90
2019-05-14T05:57:39.009Z,99.90
2019-05-14T05:58:19.537Z,99.90
2019-05-14T05:58:57.494Z,99.90
2019-05-14T05:59:36.336Z,99.90
2019-05-14T06:00:15.300Z,99.90
2019-05-14T06:00:59.143Z,99.90
2019-05-14T06:01:44.915Z,99.90
2019-05-14T06:02:18.673Z,99.90
2019-05-14T06:02:59.126Z,99.90
2019-05-14T06:03:39.287Z,99.90
2019-05-14T06:04:18.281Z,99.90
2019-05-14T06:04:58.615Z,99.90
2019-05-14T06:05:38.912Z,99.80
2019-05-14T06:06:20.079Z,99.50
2019-05-14T06:07:02.228Z,99.40
2019-05-14T06:07:39.697Z,99.10
2019-05-14T06:08:18.944Z,98.90
2019-05-14T06:08:58.354Z,98.80
2019-05-14T06:09:38.130Z,98.90
2019-05-14T06:10:18.702Z,99.00
2019-05-14T06:10:59.147Z,99.00
2019-05-14T06:11:38.089Z,99.00
2019-05-14T06:12:19.024Z,99.00
2019-05-14T06:12:58.583Z,99.10
2019-05-14T06:13:39.185Z,99.20
2019-05-14T06:14:18.645Z,99.10
2019-05-14T06:14:57.943Z,99.20
2019-05-14T06:15:47.576Z,99.20
2019-05-14T06:16:18.627Z,99.20
2019-05-14T06:16:59.105Z,99.10
2019-05-14T06:17:39.099Z,99.20
2019-05-14T06:18:21.732Z,99.10
2019-05-14T06:18:58.809Z,99.20
2019-05-14T06:19:38.140Z,99.20
2019-05-14T06:20:18.971Z,99.50
2019-05-14T06:20:58.626Z,99.60
2019-05-14T06:21:39.817Z,99.50
2019-05-14T06:22:18.810Z,99.20
2019-05-14T06:22:58.879Z,99.00
2019-05-14T06:23:38.615Z,99.10
2019-05-14T06:24:19.321Z,98.90
2019-05-14T06:24:58.609Z,98.90
2019-05-14T06:25:39.938Z,98.80
2019-05-14T06:26:19.193Z,99.00
2019-05-14T06:26:58.742Z,98.90
2019-05-14T06:27:38.088Z,98.70
2019-05-14T06:28:20.538Z,99.10
2019-05-14T06:28:59.727Z,99.20
2019-05-14T06:29:38.286Z,99.50
2019-05-14T06:30:18.326Z,99.80
2019-05-14T06:30:58.886Z,99.90
2019-05-14T06:31:38.663Z,99.90
2019-05-14T06:32:18.690Z,99.90
2019-05-14T06:32:59.374Z,99.90
2019-05-14T06:33:39.392Z,99.90
2019-05-14T06:34:18.839Z,99.90
2019-05-14T06:34:59.352Z,99.90
2019-05-14T06:35:39.671Z,99.90
2019-05-14T06:36:19.706Z,99.90
2019-05-14T06:36:59.202Z,99.90
2019-05-14T06:37:38.457Z,99.90
2019-05-14T06:38:18.515Z,99.90
2019-05-14T06:38:58.654Z,99.90
2019-05-14T06:39:39.056Z,99.90
2019-05-14T06:40:19.301Z,99.90
2019-05-14T06:40:59.282Z,99.90
2019-05-14T06:41:42.605Z,99.90
2019-05-14T06:42:19.443Z,99.90
2019-05-14T06:42:59.170Z,99.90
2019-05-14T06:43:39.234Z,99.90
2019-05-14T06:44:18.677Z,99.90
2019-05-14T06:44:58.566Z,99.90
2019-05-14T06:45:38.850Z,99.90
2019-05-14T06:46:19.292Z,99.90
2019-05-14T06:46:59.088Z,99.90
2019-05-14T06:47:38.364Z,99.90
2019-05-14T06:48:30.155Z,99.90
2019-05-14T06:48:59.003Z,99.90
2019-05-14T06:49:38.596Z,99.90
2019-05-14T06:50:19.023Z,99.90
2019-05-14T06:50:58.462Z,99.90
2019-05-14T06:51:39.473Z,99.90
2019-05-14T06:52:18.737Z,99.90
2019-05-14T06:52:58.187Z,99.90
2019-05-14T06:53:39.116Z,99.90
2019-05-14T06:54:19.615Z,99.90
2019-05-14T06:54:58.298Z,99.90
2019-05-14T06:55:39.353Z,99.90
2019-05-14T06:56:18.978Z,99.90
2019-05-14T06:56:58.266Z,99.90
2019-05-14T06:57:39.112Z,99.90
2019-05-14T06:58:20.130Z,99.90
2019-05-14T06:58:58.370Z,99.90
2019-05-14T06:59:38.080Z,99.90
2019-05-14T07:00:18.926Z,99.90
2019-05-14T07:00:58.674Z,99.90
2019-05-14T07:01:38.413Z,99.90
2019-05-14T07:02:19.238Z,99.90
2019-05-14T07:02:58.285Z,99.90
2019-05-14T07:03:38.273Z,99.90
2019-05-14T07:04:18.229Z,99.90
2019-05-14T07:04:58.887Z,99.90
2019-05-14T07:05:38.969Z,99.90
2019-05-14T07:06:18.678Z,99.90
2019-05-14T07:06:59.030Z,99.90
2019-05-14T07:07:40.496Z,99.90
2019-05-14T07:08:18.822Z,99.90
2019-05-14T07:08:58.876Z,99.90
2019-05-14T07:09:38.402Z,99.90
2019-05-14T07:10:19.602Z,99.90
2019-05-14T07:10:59.309Z,99.90
2019-05-14T07:11:38.793Z,99.90
2019-05-14T07:12:19.181Z,99.90
2019-05-14T07:12:59.197Z,99.90
2019-05-14T07:13:38.490Z,99.90
2019-05-14T07:14:18.947Z,99.90
2019-05-14T07:14:58.520Z,99.90
2019-05-14T07:15:38.663Z,99.90
2019-05-14T07:16:19.680Z,99.90
2019-05-14T07:16:59.009Z,99.90
2019-05-14T07:17:38.460Z,99.90
2019-05-14T07:18:19.049Z,99.90
2019-05-14T07:18:59.189Z,99.90
2019-05-14T07:19:38.476Z,99.90
2019-05-14T07:20:18.885Z,99.90
2019-05-14T07:20:58.891Z,99.90
2019-05-14T07:21:38.383Z,99.90
2019-05-14T07:22:19.360Z,99.90
2019-05-14T07:22:58.653Z,99.90
2019-05-14T07:23:38.391Z,99.90
2019-05-14T07:24:19.604Z,99.90
2019-05-14T07:24:58.720Z,99.90
2019-05-14T07:25:39.391Z,99.90
2019-05-14T07:26:19.271Z,99.90
2019-05-14T07:26:58.834Z,99.90
2019-05-14T07:27:39.189Z,99.90
2019-05-14T07:28:19.327Z,99.90
2019-05-14T07:28:59.056Z,99.90
2019-05-14T07:29:38.693Z,99.90
2019-05-14T07:30:19.325Z,99.90
2019-05-14T07:30:59.278Z,99.90
2019-05-14T07:31:38.577Z,99.90
2019-05-14T07:32:24.168Z,99.90
2019-05-14T07:33:03.886Z,99.90
2019-05-14T07:33:42.655Z,99.90
2019-05-14T07:34:21.615Z,99.90
2019-05-14T07:35:00.340Z,99.90
2019-05-14T07:35:39.164Z,99.90
2019-05-14T07:36:18.857Z,99.90
2019-05-14T07:36:58.751Z,99.90
2019-05-14T07:37:39.549Z,99.90
2019-05-14T07:38:19.549Z,99.90
2019-05-14T07:39:00.212Z,99.90
2019-05-14T07:39:38.664Z,99.90
2019-05-14T07:40:19.208Z,99.90
2019-05-14T07:40:58.519Z,99.90
2019-05-14T07:41:38.953Z,99.90
2019-05-14T07:42:18.294Z,99.90
2019-05-14T07:42:58.352Z,99.90
2019-05-14T07:43:39.135Z,99.90
2019-05-14T07:44:18.249Z,99.90
2019-05-14T07:44:58.876Z,99.90
2019-05-14T07:45:38.527Z,99.90
2019-05-14T07:46:19.144Z,99.90
2019-05-14T07:46:58.943Z,99.90
2019-05-14T07:47:38.866Z,99.90
2019-05-14T07:48:19.028Z,99.90
2019-05-14T07:49:05.410Z,99.90
2019-05-14T07:49:38.651Z,99.90
2019-05-14T07:50:19.638Z,99.90
2019-05-14T07:50:59.930Z,99.90
2019-05-14T07:51:38.911Z,99.90
2019-05-14T07:52:19.804Z,99.90
2019-05-14T07:52:58.733Z,99.90
2019-05-14T07:53:41.595Z,99.90
2019-05-14T07:54:19.497Z,99.90
2019-05-14T07:54:58.665Z,99.90
2019-05-14T07:55:38.539Z,99.90
2019-05-14T07:56:18.735Z,99.90
2019-05-14T07:56:59.072Z,99.90
2019-05-14T07:57:39.626Z,99.90
2019-05-14T07:58:19.617Z,99.90
2019-05-14T07:59:02.152Z,99.90
2019-05-14T07:59:39.092Z,99.90
2019-05-14T08:00:19.171Z,99.90
2019-05-14T08:00:58.586Z,99.90
2019-05-14T08:01:38.890Z,99.90
2019-05-14T08:02:19.619Z,99.90
2019-05-14T08:02:58.171Z,99.90
2019-05-14T08:03:38.235Z,99.90
2019-05-14T08:04:19.939Z,99.90
2019-05-14T08:04:58.092Z,99.90
2019-05-14T08:05:38.795Z,99.90
2019-05-14T08:06:18.875Z,99.90
2019-05-14T08:06:58.228Z,99.90
2019-05-14T08:07:38.864Z,99.90
2019-05-14T08:08:18.736Z,99.90
2019-05-14T08:08:59.198Z,99.90
2019-05-14T08:09:38.996Z,99.90
2019-05-14T08:10:18.622Z,99.70
2019-05-14T08:10:59.243Z,99.40
2019-05-14T08:11:38.726Z,98.70
2019-05-14T08:12:19.290Z,97.90
2019-05-14T08:12:58.862Z,97.10
2019-05-14T08:13:39.019Z,97.00
2019-05-14T08:14:18.487Z,96.60
2019-05-14T08:15:14.370Z,96.70
2019-05-14T08:15:39.698Z,96.50
2019-05-14T08:16:18.836Z,96.60
2019-05-14T08:16:59.476Z,96.90
2019-05-14T08:17:38.731Z,97.00
2019-05-14T08:18:18.834Z,97.10
2019-05-14T08:18:59.940Z,97.20
2019-05-14T08:19:38.639Z,97.20
2019-05-14T08:20:18.331Z,97.40
2019-05-14T08:20:59.183Z,97.40
2019-05-14T08:21:38.703Z,97.30
2019-05-14T08:22:18.650Z,97.10
2019-05-14T08:22:58.265Z,97.40
2019-05-14T08:23:39.091Z,97.40
2019-05-14T08:24:20.172Z,97.40
2019-05-14T08:24:58.105Z,97.00
2019-05-14T08:25:39.012Z,96.90
2019-05-14T08:26:19.184Z,97.00
2019-05-14T08:26:58.114Z,97.20
2019-05-14T08:27:38.890Z,97.00
2019-05-14T08:28:21.185Z,96.90
2019-05-14T08:28:59.995Z,96.50
2019-05-14T08:29:58.929Z,96.70
2019-05-14T08:30:38.883Z,96.80
2019-05-14T08:31:18.761Z,96.90
2019-05-14T08:31:58.265Z,96.90
2019-05-14T08:32:39.052Z,97.00
2019-05-14T08:33:18.455Z,97.00
2019-05-14T08:33:59.118Z,97.10
2019-05-14T08:34:38.919Z,97.10
2019-05-14T08:35:18.533Z,97.20
2019-05-14T08:35:58.255Z,97.20
2019-05-14T08:36:38.027Z,97.30
2019-05-14T08:37:19.150Z,97.20
2019-05-14T08:38:05.551Z,96.90
2019-05-14T08:38:38.265Z,96.40
2019-05-14T08:39:18.600Z,96.70
2019-05-14T08:39:58.860Z,96.30
2019-05-14T08:40:38.217Z,96.50
2019-05-14T08:41:19.521Z,96.50
2019-05-14T08:42:03.680Z,96.60
2019-05-14T08:42:38.574Z,96.60
2019-05-14T08:43:18.546Z,96.60
2019-05-14T08:43:59.490Z,96.60
2019-05-14T08:44:38.939Z,96.60
2019-05-14T08:45:18.987Z,96.70
2019-05-14T08:46:02.496Z,96.80
2019-05-14T08:46:44.696Z,96.90
2019-05-14T08:47:21.734Z,96.80
2019-05-14T08:48:00.475Z,96.30
2019-05-14T08:48:39.177Z,96.30
2019-05-14T08:49:18.506Z,95.80
2019-05-14T08:49:59.890Z,95.60
2019-05-14T08:50:39.197Z,95.30
2019-05-14T08:51:18.648Z,95.40
2019-05-14T08:51:59.573Z,95.30
2019-05-14T08:52:39.259Z,95.50
2019-05-14T08:53:18.712Z,95.90
2019-05-14T08:53:59.211Z,96.00
2019-05-14T08:54:39.085Z,96.10
2019-05-14T08:55:18.560Z,95.80
2019-05-14T08:55:58.870Z,96.00
2019-05-14T08:56:38.908Z,95.90
2019-05-14T08:57:19.009Z,96.10
2019-05-14T08:57:59.225Z,96.10
2019-05-14T08:58:38.690Z,96.10
2019-05-14T08:59:19.412Z,96.20
2019-05-14T08:59:59.322Z,96.20
2019-05-14T09:00:38.707Z,96.30
2019-05-14T09:01:19.457Z,96.30
2019-05-14T09:02:05.866Z,96.20
2019-05-14T09:02:39.269Z,96.30
2019-05-14T09:03:19.324Z,96.30
2019-05-14T09:03:59.579Z,96.40
2019-05-14T09:04:42.768Z,96.20
2019-05-14T09:05:19.866Z,96.40
2019-05-14T09:06:00.816Z,96.40
2019-05-14T09:06:38.695Z,96.40
2019-05-14T09:07:18.521Z,96.40
2019-05-14T09:07:58.151Z,96.30
2019-05-14T09:08:39.236Z,96.40
2019-05-14T09:09:18.545Z,96.40
2019-05-14T09:10:01.062Z,96.20
2019-05-14T09:10:41.140Z,96.00
2019-05-14T09:11:24.386Z,95.80
2019-05-14T09:12:00.040Z,95.40
2019-05-14T09:12:39.087Z,95.60
2019-05-14T09:13:18.397Z,95.50
2019-05-14T09:13:59.248Z,95.40
2019-05-14T09:14:38.842Z,95.50
2019-05-14T09:15:18.653Z,95.60
2019-05-14T09:15:58.277Z,95.70
2019-05-14T09:16:46.133Z,95.80
2019-05-14T09:17:18.690Z,95.90
2019-05-14T09:17:59.074Z,95.90
2019-05-14T09:18:38.694Z,96.00
2019-05-14T09:19:19.304Z,96.00
2019-05-14T09:20:06.126Z,96.00
2019-05-14T09:20:38.614Z,96.10
2019-05-14T09:21:17.132Z,96.00
2019-05-14T09:21:58.573Z,96.10
2019-05-14T09:22:36.311Z,96.10
2019-05-14T09:23:15.202Z,96.10
2019-05-14T09:23:53.540Z,96.10
2019-05-14T09:24:32.449Z,96.10
2019-05-14T09:25:11.391Z,96.10
2019-05-14T09:25:53.217Z,96.10
2019-05-14T09:26:30.147Z,96.20
2019-05-14T09:27:09.103Z,96.30
2019-05-14T09:27:49.381Z,96.30
2019-05-14T09:28:28.609Z,96.30
2019-05-14T09:29:19.491Z,96.00
2019-05-14T09:29:48.456Z,96.30
2019-05-14T09:30:29.015Z,96.30
2019-05-14T09:31:08.433Z,96.30
2019-05-14T09:31:49.437Z,96.10
2019-05-14T09:32:29.167Z,96.10
2019-05-14T09:33:08.689Z,96.00
2019-05-14T09:33:49.433Z,96.00
2019-05-14T09:34:29.113Z,96.10
2019-05-14T09:35:09.765Z,96.10
2019-05-14T09:35:49.271Z,96.10
2019-05-14T09:36:28.913Z,96.10
2019-05-14T09:37:08.681Z,96.20
2019-05-14T09:37:51.040Z,96.20
2019-05-14T09:38:29.385Z,96.20
2019-05-14T09:39:12.172Z,96.30
2019-05-14T09:39:49.438Z,96.30
2019-05-14T09:40:28.993Z,96.40
2019-05-14T09:41:14.698Z,96.40
2019-05-14T09:41:48.235Z,96.40
2019-05-14T09:42:28.598Z,96.40
2019-05-14T09:43:09.224Z,96.40
2019-05-14T09:43:49.702Z,96.40
2019-05-14T09:44:29.248Z,96.40
2019-05-14T09:45:11.154Z,96.50
2019-05-14T09:45:48.902Z,96.60
2019-05-14T09:46:28.922Z,96.70
2019-05-14T09:47:08.624Z,96.70
2019-05-14T09:47:50.399Z,96.90
2019-05-14T09:48:28.584Z,96.80
2019-05-14T09:49:08.054Z,96.80
2019-05-14T09:49:49.104Z,96.80
2019-05-14T09:50:29.159Z,96.90
2019-05-14T09:51:09.260Z,97.20
2019-05-14T09:51:48.888Z,97.00
2019-05-14T09:52:29.352Z,96.80
2019-05-14T09:53:09.735Z,96.80
2019-05-14T09:53:49.052Z,96.90
2019-05-14T09:54:28.856Z,96.80
2019-05-14T09:55:09.368Z,97.00
2019-05-14T09:55:49.133Z,97.00
2019-05-14T09:56:29.102Z,97.00
2019-05-14T09:57:08.397Z,97.00
2019-05-14T09:57:49.102Z,97.10
2019-05-14T09:58:28.261Z,97.00
2019-05-14T09:59:09.018Z,97.00
2019-05-14T09:59:47.944Z,97.00
2019-05-14T10:00:27.089Z,97.00
2019-05-14T10:01:08.298Z,97.00
2019-05-14T10:01:45.797Z,97.10
2019-05-14T10:02:24.734Z,97.10
2019-05-14T10:03:04.676Z,97.20
2019-05-14T10:03:44.508Z,97.30
2019-05-14T10:04:23.611Z,97.50
2019-05-14T10:05:02.545Z,97.50
2019-05-14T10:05:41.347Z,97.60
2019-05-14T10:06:20.852Z,97.60
2019-05-14T10:06:59.686Z,97.70
2019-05-14T10:07:39.224Z,97.70
2019-05-14T10:08:19.368Z,97.60
2019-05-14T10:08:59.001Z,97.60
2019-05-14T10:09:38.909Z,97.60
2019-05-14T10:10:19.587Z,97.50
2019-05-14T10:11:00.386Z,97.60
2019-05-14T10:11:38.480Z,97.60
2019-05-14T10:12:18.257Z,97.80
2019-05-14T10:13:01.252Z,97.80
2019-05-14T10:13:39.446Z,97.80
2019-05-14T10:14:18.514Z,97.80
2019-05-14T10:14:59.192Z,97.80
2019-05-14T10:15:39.111Z,97.80
2019-05-14T10:16:18.918Z,97.80
2019-05-14T10:16:58.362Z,98.00
2019-05-14T10:17:39.328Z,98.00
2019-05-14T10:18:19.056Z,98.00
2019-05-14T10:18:57.536Z,98.10
2019-05-14T10:19:39.283Z,98.10
2019-05-14T10:20:35.692Z,98.10
2019-05-14T10:20:59.068Z,98.10
2019-05-14T10:21:38.776Z,98.10
2019-05-14T10:22:19.818Z,98.10
2019-05-14T10:22:58.588Z,98.20
2019-05-14T10:23:38.964Z,98.20
2019-05-14T10:24:18.644Z,98.20
2019-05-14T10:24:58.233Z,98.20
2019-05-14T10:25:40.183Z,98.10
2019-05-14T10:26:18.535Z,98.10
2019-05-14T10:26:58.576Z,98.00
2019-05-14T10:27:37.481Z,98.00
2019-05-14T10:28:18.937Z,97.90
2019-05-14T10:28:58.863Z,98.10
2019-05-14T10:29:39.128Z,98.20
2019-05-14T10:30:18.123Z,98.20
2019-05-14T10:30:59.457Z,98.20
2019-05-14T10:31:39.536Z,98.20
2019-05-14T10:32:18.637Z,98.20
2019-05-14T10:33:06.955Z,98.30
2019-05-14T10:33:38.082Z,98.30
2019-05-14T10:34:18.997Z,98.30
2019-05-14T10:34:58.865Z,98.30
2019-05-14T10:35:39.103Z,98.30
2019-05-14T10:36:19.278Z,98.30
2019-05-14T10:36:59.080Z,98.70
2019-05-14T10:37:39.929Z,98.40
2019-05-14T10:38:19.008Z,98.40
2019-05-14T10:38:58.850Z,98.40
2019-05-14T10:39:39.080Z,98.40
2019-05-14T10:40:18.376Z,98.40
2019-05-14T10:40:58.371Z,98.40
2019-05-14T10:41:38.542Z,98.40
2019-05-14T10:42:19.864Z,98.40
2019-05-14T10:42:57.542Z,98.40
2019-05-14T10:43:38.948Z,98.30
2019-05-14T10:44:18.701Z,98.30
2019-05-14T10:44:58.686Z,98.20
2019-05-14T10:45:38.474Z,98.10
2019-05-14T10:46:19.334Z,98.20
2019-05-14T10:46:58.264Z,98.10
2019-05-14T10:47:39.716Z,98.00
2019-05-14T10:48:18.757Z,98.00
2019-05-14T10:49:00.261Z,98.10
2019-05-14T10:49:38.702Z,98.10
2019-05-14T10:50:18.438Z,98.10
2019-05-14T10:51:03.364Z,98.10
2019-05-14T10:51:38.932Z,98.10
2019-05-14T10:52:19.673Z,98.10
2019-05-14T10:52:59.474Z,98.10
2019-05-14T10:53:38.174Z,98.10
2019-05-14T10:54:24.997Z,98.10
2019-05-14T10:54:59.048Z,98.20
2019-05-14T10:55:38.667Z,98.20
2019-05-14T10:56:19.227Z,98.20
2019-05-14T10:57:00.028Z,98.20
2019-05-14T10:57:38.771Z,98.20
2019-05-14T10:58:19.497Z,98.20
2019-05-14T10:58:58.474Z,98.20
2019-05-14T10:59:37.040Z,98.20
2019-05-14T11:00:18.480Z,98.20
2019-05-14T11:00:58.656Z,98.10
2019-05-14T11:01:38.907Z,98.20
2019-05-14T11:02:18.567Z,98.10
2019-05-14T11:02:57.088Z,98.10
2019-05-14T11:03:35.831Z,98.10
2019-05-14T11:04:14.742Z,98.10
2019-05-14T11:04:53.307Z,98.10
2019-05-14T11:05:32.027Z,98.10
2019-05-14T11:06:11.667Z,98.10
2019-05-14T11:06:50.957Z,98.20
2019-05-14T11:07:29.410Z,98.20
2019-05-14T11:08:11.802Z,98.20
2019-05-14T11:08:49.229Z,98.20
2019-05-14T11:09:28.584Z,98.30
2019-05-14T11:10:09.226Z,98.30
2019-05-14T11:10:49.755Z,98.30
2019-05-14T11:11:29.015Z,98.30
2019-05-14T11:12:08.979Z,98.40
2019-05-14T11:12:50.690Z,98.40
2019-05-14T11:13:29.369Z,98.40
2019-05-14T11:14:09.206Z,98.40
2019-05-14T11:14:49.341Z,98.40
2019-05-14T11:15:28.523Z,98.50
2019-05-14T11:16:08.573Z,98.90
2019-05-14T11:16:48.561Z,98.50
2019-05-14T11:17:29.101Z,98.60
2019-05-14T11:18:08.655Z,98.60
2019-05-14T11:18:49.647Z,98.60
2019-05-14T11:19:28.238Z,98.60
2019-05-14T11:20:08.061Z,98.60
2019-05-14T11:20:52.884Z,98.60
2019-05-14T11:21:31.623Z,98.60
2019-05-14T11:22:10.551Z,98.60
2019-05-14T11:22:49.534Z,98.60
2019-05-14T11:23:29.750Z,98.50
2019-05-14T11:24:09.537Z,98.50
2019-05-14T11:24:49.191Z,98.50
2019-05-14T11:25:28.772Z,98.50
2019-05-14T11:26:09.173Z,98.50
2019-05-14T11:26:49.598Z,98.50
2019-05-14T11:27:29.239Z,98.80
2019-05-14T11:28:08.839Z,98.40
2019-05-14T11:28:49.219Z,98.40
2019-05-14T11:29:29.492Z,98.30
2019-05-14T11:30:08.912Z,98.30
2019-05-14T11:30:49.514Z,98.30
2019-05-14T11:31:29.473Z,98.20
2019-05-14T11:32:09.887Z,98.20
2019-05-14T11:32:49.264Z,98.40
2019-05-14T11:33:29.719Z,98.30
2019-05-14T11:34:08.709Z,98.20
2019-05-14T11:34:47.639Z,98.10
2019-05-14T11:35:28.606Z,98.00
2019-05-14T11:36:18.789Z,98.00
2019-05-14T11:36:49.442Z,98.00
2019-05-14T11:37:28.116Z,98.00
2019-05-14T11:38:25.914Z,97.90
2019-05-14T11:38:50.268Z,97.90
2019-05-14T11:39:28.784Z,97.90
2019-05-14T11:40:08.764Z,97.90
2019-05-14T11:40:49.494Z,97.90
2019-05-14T13:51:33.565Z,97.40
2019-05-14T13:52:15.397Z,97.70
2019-05-14T13:53:03.242Z,97.40
2019-05-14T13:53:35.472Z,97.60
2019-05-14T13:54:15.144Z,97.80
2019-05-14T13:54:54.630Z,97.90
2019-05-14T13:55:34.351Z,98.10
2019-05-14T13:56:13.612Z,98.10
2019-05-14T13:56:54.290Z,98.20
2019-05-14T13:57:33.531Z,98.30
2019-05-14T13:58:53.475Z,98.20
2019-05-14T13:59:32.207Z,98.20
2019-05-14T14:00:12.791Z,98.10
2019-05-14T14:00:52.319Z,98.20
2019-05-14T14:01:40.355Z,98.20
2019-05-14T14:02:19.720Z,98.20
2019-05-14T14:02:59.014Z,98.20
2019-05-14T14:03:47.982Z,98.20
2019-05-14T14:04:38.190Z,98.10
2019-05-14T14:05:19.891Z,98.10
2019-05-14T14:05:59.340Z,98.10
2019-05-14T14:06:40.961Z,98.20
2019-05-14T14:07:31.046Z,98.20
2019-05-14T14:08:09.763Z,98.10
2019-05-14T14:08:48.853Z,98.10
2019-05-14T14:09:31.575Z,98.10
2019-05-14T14:10:17.116Z,98.10
2019-05-14T14:11:02.178Z,98.20
2019-05-14T14:11:38.195Z,98.20
2019-05-14T14:12:16.364Z,98.20
2019-05-14T14:12:55.904Z,98.20
2019-05-14T14:13:35.320Z,98.10
2019-05-14T14:14:14.432Z,98.00
2019-05-14T14:14:53.827Z,98.00
2019-05-14T14:15:33.897Z,98.00
2019-05-14T14:16:15.150Z,98.00
2019-05-14T14:16:53.828Z,98.10
2019-05-14T14:17:33.370Z,98.20
2019-05-14T14:18:12.519Z,98.10
2019-05-14T14:18:51.691Z,98.10
2019-05-14T14:19:30.913Z,98.00
2019-05-14T14:20:10.160Z,98.00
2019-05-14T14:20:49.270Z,97.90
2019-05-14T14:21:30.050Z,97.90